Time;durP1;ratioP1;P1;durP2;ratioP2;P2;SDS_P1;SDS_P2;PMS_P1;PMS_P2;Temp;Humidity;BMP_temperature;BMP_pressure;BME280_temperature;BME280_humidity;BME280_pressure;Samples;Min_cycle;Max_cycle;Signal;HPM_P1;HPM_P2
2023/07/30 00:00:10;;;;;;;12.00;5.60;;;;;;;28.55;43.60;100751.13;4938431;28;20226;-80
2023/07/30 00:02:37;;;;;;;10.23;5.47;;;;;;;28.57;43.73;100742.69;4930110;28;20055;-80
2023/07/30 00:05:04;;;;;;;7.35;5.75;;;;;;;28.45;43.77;100741.91;4937473;28;20475;-80
2023/07/30 00:07:31;;;;;;;7.88;4.82;;;;;;;28.41;44.13;100727.13;4930206;28;20638;-78
2023/07/30 00:09:58;;;;;;;8.90;4.95;;;;;;;28.52;44.08;100761.69;4937700;28;20467;-77
2023/07/30 00:12:25;;;;;;;11.30;5.13;;;;;;;28.51;43.92;100752.69;4939384;28;20226;-81
2023/07/30 00:14:52;;;;;;;7.68;4.88;;;;;;;27.87;44.42;100668.50;4931789;28;20062;-80
2023/07/30 00:17:19;;;;;;;9.43;5.07;;;;;;;28.45;44.64;100752.81;4929824;28;20051;-80
2023/07/30 00:19:45;;;;;;;10.00;5.30;;;;;;;28.23;44.10;100720.03;4936283;28;20051;-80
2023/07/30 00:22:12;;;;;;;10.02;5.30;;;;;;;28.32;44.57;100733.00;4940237;28;20355;-79
2023/07/30 00:24:38;;;;;;;14.57;6.00;;;;;;;28.24;44.44;100733.44;4933127;28;20473;-79
2023/07/30 00:27:07;;;;;;;8.25;4.85;;;;;;;27.97;44.19;100688.84;4936226;28;20082;-80
2023/07/30 00:29:38;;;;;;;8.55;4.82;;;;;;;28.37;44.86;100742.34;4956689;28;20146;-80
2023/07/30 00:32:10;;;;;;;9.30;4.70;;;;;;;27.98;44.62;100685.03;4913546;28;20743;-79
2023/07/30 00:34:41;;;;;;;12.57;5.00;;;;;;;28.20;45.24;100726.81;4918155;28;20567;-78
2023/07/30 00:37:14;;;;;;;6.20;4.65;;;;;;;28.27;44.61;100749.31;4912410;28;20440;-80
2023/07/30 00:39:51;;;;;;;11.15;5.05;;;;;;;28.19;44.29;100724.38;4937721;28;20055;-78
2023/07/30 00:42:22;;;;;;;6.50;4.82;;;;;;;28.00;44.94;100704.69;4920854;28;20126;-77
2023/07/30 00:44:54;;;;;;;;;;;;;;;28.31;46.90;100747.75;4975369;28;20054;-79
2023/07/30 00:47:23;;;;;;;9.20;6.50;;;;;;;28.27;44.58;100743.03;4929628;28;19941;-79
2023/07/30 00:49:50;;;;;;;10.18;5.47;;;;;;;28.04;45.11;100708.59;4929562;28;20507;-77
2023/07/30 00:52:22;;;;;;;8.93;5.22;;;;;;;28.17;45.02;100732.78;4946805;28;20471;-79
2023/07/30 00:54:58;;;;;;;11.75;6.03;;;;;;;28.33;45.94;100731.94;4925369;28;20079;-80
2023/07/30 00:57:26;;;;;;;13.52;5.40;;;;;;;28.12;44.88;100691.78;4927687;28;20340;-79
2023/07/30 00:59:53;;;;;;;12.68;4.53;;;;;;;28.37;44.76;100745.09;4935904;28;20527;-77
2023/07/30 01:02:22;;;;;;;9.60;5.30;;;;;;;28.22;45.37;100734.78;4921968;28;20050;-79
2023/07/30 01:04:54;;;;;;;10.35;5.22;;;;;;;27.91;44.94;100691.50;4925783;28;20356;-79
2023/07/30 01:07:21;;;;;;;11.10;4.97;;;;;;;28.18;45.20;100729.00;4931431;28;20461;-78
2023/07/30 01:09:47;;;;;;;9.35;5.20;;;;;;;28.16;44.90;100735.75;4930167;28;20507;-78
2023/07/30 01:12:14;;;;;;;8.70;4.72;;;;;;;28.28;44.81;100763.81;4934943;28;20050;-78
2023/07/30 01:14:47;;;;;;;11.82;5.78;;;;;;;28.08;45.40;100728.81;4905826;28;20534;-78
2023/07/30 01:17:21;;;;;;;14.98;5.18;;;;;;;28.15;45.09;100751.31;4895517;28;20671;-79
2023/07/30 01:19:59;;;;;;;11.23;5.50;;;;;;;28.00;44.58;100724.63;4890667;28;20506;-80
2023/07/30 01:22:39;;;;;;;7.80;4.60;;;;;;;28.26;44.86;100788.63;4917423;28;20502;-79
2023/07/30 01:25:08;;;;;;;7.40;4.25;;;;;;;27.70;44.80;100716.75;4923358;28;20380;-79
2023/07/30 01:27:42;;;;;;;11.80;5.18;;;;;;;28.21;45.03;100818.56;4934836;28;20053;-80
2023/07/30 01:30:52;;;;;;;7.25;4.78;;;;;;;28.40;45.05;100829.19;4946648;28;20582;-79
2023/07/30 01:33:30;;;;;;;8.93;6.28;;;;;;;28.39;45.68;100825.66;4806571;29;20636;-77
2023/07/30 01:35:58;;;;;;;11.82;5.55;;;;;;;28.20;45.28;100805.16;4881331;28;20054;-77
2023/07/30 01:38:26;;;;;;;13.50;5.70;;;;;;;27.98;45.67;100799.59;4886548;28;20464;-79
2023/07/30 01:40:54;;;;;;;9.07;6.30;;;;;;;28.18;46.55;100827.25;4912067;28;20267;-77
2023/07/30 01:43:20;;;;;;;11.40;5.10;;;;;;;27.82;47.86;100788.44;4920035;28;20419;-78
2023/07/30 01:45:52;;;;;;;12.45;7.30;;;;;;;27.89;48.49;100808.22;4917282;28;20348;-79
2023/07/30 01:48:27;;;;;;;11.48;6.65;;;;;;;27.78;49.31;100817.25;4902360;28;20253;-79
2023/07/30 01:50:55;;;;;;;13.77;6.97;;;;;;;27.81;49.43;100822.19;4923729;28;20125;-78
2023/07/30 01:53:22;;;;;;;11.07;7.15;;;;;;;27.61;49.96;100802.75;4938591;28;20093;-78
2023/07/30 01:55:54;;;;;;;10.68;8.10;;;;;;;27.72;51.40;100829.16;4924713;28;20074;-81
2023/07/30 01:58:32;;;;;;;13.80;8.32;;;;;;;27.57;51.54;100816.03;4919327;28;20113;-81
2023/07/30 02:01:06;;;;;;;17.40;7.85;;;;;;;27.51;51.98;100806.13;4923127;28;20053;-79
2023/07/30 02:03:33;;;;;;;13.15;8.35;;;;;;;27.47;52.16;100805.75;4903985;28;20901;-80
2023/07/30 02:06:00;;;;;;;15.95;7.63;;;;;;;27.11;51.83;100746.16;4917370;29;20678;-77
2023/07/30 02:08:30;;;;;;;17.80;8.70;;;;;;;27.24;51.92;100748.66;4905451;29;20043;-79
2023/07/30 02:10:58;;;;;;;10.50;7.10;;;;;;;27.30;51.97;100783.09;4914052;29;20051;-80
2023/07/30 02:13:25;;;;;;;13.75;7.82;;;;;;;27.26;52.13;100787.38;4906405;29;20443;-77
2023/07/30 02:15:52;;;;;;;11.27;7.40;;;;;;;27.20;51.73;100772.81;4898513;29;20047;-79
2023/07/30 02:18:20;;;;;;;13.75;7.47;;;;;;;27.15;52.40;100777.31;4882625;29;20051;-81
2023/07/30 02:20:47;;;;;;;10.38;7.18;;;;;;;27.20;52.25;100780.16;4879104;29;20337;-79
2023/07/30 02:23:18;;;;;;;14.93;6.95;;;;;;;27.14;52.28;100778.38;4881163;29;20384;-80
2023/07/30 02:25:47;;;;;;;10.83;7.50;;;;;;;27.30;52.27;100787.72;4905209;29;20055;-78
2023/07/30 02:28:14;;;;;;;16.30;7.63;;;;;;;27.22;52.65;100808.84;4895165;29;20363;-79
2023/07/30 02:30:41;;;;;;;10.93;8.07;;;;;;;27.19;52.51;100803.06;4897083;29;20530;-79
2023/07/30 02:33:08;;;;;;;14.48;7.97;;;;;;;27.13;52.74;100799.34;4900411;28;20419;-79
2023/07/30 02:35:34;;;;;;;16.55;8.27;;;;;;;26.86;52.62;100788.16;4891139;29;20495;-79
2023/07/30 02:38:02;;;;;;;11.93;7.68;;;;;;;27.01;52.46;100785.75;4890985;29;20044;-80
2023/07/30 02:40:31;;;;;;;13.15;7.13;;;;;;;26.94;53.24;100793.22;4920700;29;20066;-79
2023/07/30 02:43:01;;;;;;;19.10;7.47;;;;;;;26.87;53.63;100778.94;4923528;29;20055;-79
2023/07/30 02:45:27;;;;;;;11.52;7.88;;;;;;;27.03;53.51;100813.59;4898073;29;20078;-79
2023/07/30 02:47:54;;;;;;;13.77;7.57;;;;;;;26.83;53.78;100788.66;4904847;29;20047;-79
2023/07/30 02:50:21;;;;;;;12.88;6.78;;;;;;;26.53;53.85;100750.66;4891939;29;20136;-79
2023/07/30 02:52:49;;;;;;;12.35;6.15;;;;;;;26.97;53.91;100811.84;4925592;29;20051;-79
2023/07/30 02:55:16;;;;;;;13.00;7.00;;;;;;;26.85;54.12;100809.13;4904524;29;20043;-78
2023/07/30 02:57:43;;;;;;;11.00;7.28;;;;;;;26.80;54.48;100821.81;4907444;29;20499;-80
2023/07/30 03:00:13;;;;;;;10.32;6.43;;;;;;;26.77;54.46;100820.38;4900546;29;20078;-79
2023/07/30 03:02:40;;;;;;;13.85;6.53;;;;;;;26.86;54.26;100820.84;4907092;28;20059;-80
2023/07/30 03:05:08;;;;;;;10.88;5.72;;;;;;;26.78;54.48;100823.94;4901646;29;20054;-81
2023/07/30 03:07:36;;;;;;;11.32;5.43;;;;;;;26.85;54.46;100830.94;4893067;29;20452;-79
2023/07/30 03:10:03;;;;;;;6.20;4.95;;;;;;;26.77;54.51;100814.94;4874986;29;20058;-81
2023/07/30 03:12:30;;;;;;;6.85;4.78;;;;;;;26.81;54.60;100828.91;4879528;29;20447;-80
2023/07/30 03:15:02;;;;;;;10.40;4.80;;;;;;;26.43;54.45;100778.47;4872299;29;20051;-80
2023/07/30 03:17:31;;;;;;;9.65;4.68;;;;;;;26.70;54.45;100821.56;4895483;29;20043;-79
2023/07/30 03:20:01;;;;;;;8.45;4.72;;;;;;;26.58;54.79;100814.25;4866515;29;20522;-78
2023/07/30 03:22:32;;;;;;;10.25;5.05;;;;;;;26.59;54.67;100805.00;4888990;29;20082;-81
2023/07/30 03:25:10;;;;;;;6.85;4.72;;;;;;;26.41;54.96;100784.16;4910931;29;20048;-81
2023/07/30 03:27:38;;;;;;;7.53;4.75;;;;;;;26.65;54.87;100808.66;4889125;29;20052;-79
2023/07/30 03:30:05;;;;;;;7.10;5.47;;;;;;;26.67;54.60;100801.09;4889945;29;20051;-79
2023/07/30 03:32:32;;;;;;;8.88;4.80;;;;;;;26.68;54.78;100810.09;4881146;28;20039;-79
2023/07/30 03:35:02;;;;;;;8.60;5.63;;;;;;;26.44;54.71;100764.63;4908934;28;20059;-77
2023/07/30 03:37:29;;;;;;;9.10;6.15;;;;;;;26.56;54.69;100782.91;4906772;29;20102;-76
2023/07/30 03:40:00;;;;;;;8.10;6.00;;;;;;;26.79;54.33;100792.91;4891162;29;20213;-78
2023/07/30 03:42:31;;;;;;;14.70;6.00;;;;;;;26.63;54.13;100759.91;4876792;29;20982;-77
2023/07/30 03:44:58;;;;;;;14.32;5.60;;;;;;;26.85;54.06;100791.97;4893582;29;20054;-77
2023/07/30 03:47:24;;;;;;;8.07;5.25;;;;;;;26.92;54.28;100780.91;4906826;29;20404;-78
2023/07/30 03:49:51;;;;;;;7.03;4.82;;;;;;;26.90;54.07;100767.56;4882966;29;20258;-77
2023/07/30 03:52:18;;;;;;;10.27;4.75;;;;;;;26.79;53.76;100754.78;4908360;29;20233;-79
2023/07/30 03:54:54;;;;;;;8.88;5.55;;;;;;;26.86;53.98;100782.72;4925570;29;20400;-79
2023/07/30 03:57:20;;;;;;;8.27;6.32;;;;;;;26.54;54.21;100747.72;4906813;29;20130;-79
2023/07/30 03:59:47;;;;;;;10.65;5.38;;;;;;;26.60;54.12;100768.56;4908322;29;20062;-78
2023/07/30 04:02:18;;;;;;;8.27;5.35;;;;;;;26.61;54.48;100781.09;4890412;29;20539;-79
2023/07/30 04:04:46;;;;;;;11.38;5.88;;;;;;;26.75;54.09;100802.63;4906494;28;20384;-80
2023/07/30 04:07:12;;;;;;;8.73;5.70;;;;;;;26.78;54.08;100802.16;4908602;29;20059;-78
2023/07/30 04:09:42;;;;;;;12.45;5.55;;;;;;;26.72;54.06;100789.50;4891645;29;20055;-78
2023/07/30 04:12:09;;;;;;;10.88;5.50;;;;;;;26.80;53.94;100800.84;4890237;29;20150;-79
2023/07/30 04:14:35;;;;;;;12.35;5.68;;;;;;;26.60;53.98;100752.25;4910361;28;20063;-79
2023/07/30 04:17:02;;;;;;;8.90;5.45;;;;;;;26.76;53.47;100779.78;4924565;28;20298;-79
2023/07/30 04:19:29;;;;;;;7.57;5.38;;;;;;;26.36;53.98;100724.19;4904230;29;20047;-79
2023/07/30 04:21:56;;;;;;;11.20;5.57;;;;;;;26.67;53.67;100773.88;4896329;29;20051;-79
2023/07/30 04:24:26;;;;;;;11.57;5.68;;;;;;;26.57;53.76;100763.59;4903837;29;20395;-79
2023/07/30 04:26:56;;;;;;;9.50;5.20;;;;;;;26.72;54.22;100803.09;4923243;28;20078;-78
2023/07/30 04:29:23;;;;;;;11.73;5.70;;;;;;;26.83;54.78;100784.03;4902663;29;20054;-79
2023/07/30 04:31:49;;;;;;;11.00;5.63;;;;;;;26.84;54.16;100782.13;4925517;29;20669;-78
2023/07/30 04:34:20;;;;;;;11.93;6.15;;;;;;;26.80;53.79;100761.91;4911360;29;20411;-79
2023/07/30 04:36:46;;;;;;;12.33;6.73;;;;;;;26.91;53.51;100782.00;4904240;29;20078;-80
2023/07/30 04:39:13;;;;;;;12.73;6.13;;;;;;;26.82;53.76;100766.03;4915038;29;20695;-79
2023/07/30 04:41:40;;;;;;;9.63;6.00;;;;;;;26.78;53.53;100766.75;4890195;29;20062;-79
2023/07/30 04:44:07;;;;;;;11.70;6.18;;;;;;;26.89;53.54;100784.13;4904196;29;20051;-79
2023/07/30 04:46:37;;;;;;;9.70;5.50;;;;;;;26.93;53.08;100786.13;4894365;29;20056;-80
2023/07/30 04:49:04;;;;;;;11.88;5.70;;;;;;;27.01;53.30;100807.53;4894884;29;20055;-80
2023/07/30 04:51:31;;;;;;;8.88;5.93;;;;;;;27.04;53.75;100796.19;4887964;29;20106;-79
2023/07/30 04:54:00;;;;;;;9.57;6.55;;;;;;;27.16;53.09;100792.59;4909648;29;20085;-80
2023/07/30 04:56:26;;;;;;;13.27;5.85;;;;;;;27.29;53.11;100797.81;4906267;29;20487;-78
2023/07/30 04:58:53;;;;;;;9.00;5.50;;;;;;;27.20;53.16;100785.63;4904107;29;20697;-80
2023/07/30 05:01:21;;;;;;;11.85;5.43;;;;;;;27.14;52.84;100778.38;4898016;28;20091;-77
2023/07/30 05:03:50;;;;;;;10.60;5.53;;;;;;;27.23;52.20;100804.22;4925317;28;20078;-79
2023/07/30 05:06:17;;;;;;;11.75;6.40;;;;;;;26.82;52.80;100748.84;4947738;28;20417;-79
2023/07/30 05:08:50;;;;;;;8.95;6.57;;;;;;;26.90;52.89;100786.63;4905446;28;20057;-79
2023/07/30 05:11:17;;;;;;;8.45;5.72;;;;;;;26.70;53.34;100770.69;4926050;28;20130;-79
2023/07/30 05:13:43;;;;;;;9.27;5.05;;;;;;;26.93;53.86;100805.22;4934980;28;20437;-80
2023/07/30 05:16:10;;;;;;;11.57;5.18;;;;;;;27.00;54.80;100819.53;4941727;28;20607;-79
2023/07/30 05:18:37;;;;;;;6.18;5.28;;;;;;;26.97;54.90;100787.31;4945416;28;20418;-78
2023/07/30 05:21:04;;;;;;;5.72;3.90;;;;;;;26.88;54.58;100788.75;4949312;28;20642;-79
2023/07/30 05:23:30;;;;;;;7.38;3.90;;;;;;;26.84;55.23;100822.97;4941088;28;20212;-80
2023/07/30 05:25:57;;;;;;;7.60;3.90;;;;;;;26.72;55.34;100808.56;4941940;28;20081;-79
2023/07/30 05:28:24;;;;;;;10.73;4.80;;;;;;;26.76;55.62;100829.63;4926857;28;20042;-79
2023/07/30 05:30:51;;;;;;;7.38;3.75;;;;;;;26.72;55.68;100836.59;4927890;28;20133;-79
2023/07/30 05:33:27;;;;;;;9.52;4.97;;;;;;;26.44;55.38;100796.47;4929501;28;20050;-77
2023/07/30 05:35:53;;;;;;;10.65;4.65;;;;;;;26.58;55.81;100846.06;4923684;28;20094;-78
2023/07/30 05:38:21;;;;;;;5.97;3.92;;;;;;;26.50;56.02;100847.22;4925094;28;20314;-79
2023/07/30 05:40:47;;;;;;;8.95;4.40;;;;;;;26.56;55.98;100849.06;4926269;28;20054;-77
2023/07/30 05:43:14;;;;;;;6.50;3.80;;;;;;;26.38;56.25;100824.63;4947075;28;20445;-78
2023/07/30 05:45:41;;;;;;;7.45;3.83;;;;;;;26.43;56.53;100854.69;4929404;28;20096;-80
2023/07/30 05:48:09;;;;;;;4.93;3.92;;;;;;;26.43;56.43;100839.19;4945957;28;20493;-78
2023/07/30 05:50:36;;;;;;;11.70;3.90;;;;;;;26.40;56.36;100847.00;4944360;28;20050;-79
2023/07/30 05:53:05;;;;;;;6.85;3.95;;;;;;;26.54;56.43;100851.19;4939224;28;20487;-79
2023/07/30 05:55:36;;;;;;;7.88;3.85;;;;;;;26.36;56.77;100832.19;4922417;28;20102;-80
2023/07/30 05:58:03;;;;;;;8.52;3.47;;;;;;;26.45;57.16;100871.59;4946860;28;20515;-79
2023/07/30 06:00:30;;;;;;;7.97;4.38;;;;;;;26.31;57.09;100851.13;4925764;28;20542;-79
2023/07/30 06:02:57;;;;;;;5.32;3.88;;;;;;;26.28;56.98;100857.88;4947366;28;20142;-80
2023/07/30 06:05:27;;;;;;;4.68;3.50;;;;;;;26.10;57.25;100817.97;4913714;28;20058;-80
2023/07/30 06:07:53;;;;;;;14.88;4.72;;;;;;;26.59;56.73;100875.81;4928609;28;20655;-79
2023/07/30 06:10:20;;;;;;;9.68;4.60;;;;;;;26.58;56.69;100873.31;4927855;28;20426;-78
2023/07/30 06:12:47;;;;;;;10.57;4.78;;;;;;;26.48;56.86;100873.84;4919662;28;20055;-79
2023/07/30 06:15:13;;;;;;;6.15;4.28;;;;;;;26.37;57.22;100861.91;4942333;28;20054;-78
2023/07/30 06:17:40;;;;;;;8.15;4.43;;;;;;;26.41;57.30;100867.72;4932544;28;20479;-79
2023/07/30 06:20:11;;;;;;;12.05;4.85;;;;;;;26.50;57.04;100877.19;4918771;28;20057;-79
2023/07/30 06:22:40;;;;;;;7.70;4.40;;;;;;;26.52;57.49;100861.44;4924334;28;20051;-80
2023/07/30 06:25:07;;;;;;;5.97;4.20;;;;;;;26.64;56.81;100878.63;4908076;28;20042;-78
2023/07/30 06:27:34;;;;;;;7.70;4.78;;;;;;;26.54;56.62;100859.34;4924560;28;20051;-79
2023/07/30 06:30:00;;;;;;;14.02;4.78;;;;;;;26.59;56.87;100870.34;4921299;28;20082;-78
2023/07/30 06:32:27;;;;;;;4.25;3.83;;;;;;;26.45;57.12;100847.13;4920817;28;20047;-78
2023/07/30 06:34:54;;;;;;;6.63;4.93;;;;;;;26.45;57.14;100836.22;4964183;28;20136;-78
2023/07/30 06:37:21;;;;;;;8.30;4.57;;;;;;;26.59;56.64;100851.28;4942896;28;20059;-79
2023/07/30 06:39:47;;;;;;;7.72;4.28;;;;;;;26.85;56.21;100890.84;4946760;28;20073;-77
2023/07/30 06:42:14;;;;;;;12.95;5.28;;;;;;;26.59;55.63;100825.97;4919051;28;20047;-77
2023/07/30 06:44:41;;;;;;;7.88;4.85;;;;;;;26.96;55.79;100886.44;4909159;28;20411;-78
2023/07/30 06:47:09;;;;;;;8.80;4.78;;;;;;;26.85;56.04;100873.69;4955458;28;20238;-79
2023/07/30 06:49:36;;;;;;;8.70;5.57;;;;;;;27.03;55.99;100891.78;4961932;28;20066;-79
2023/07/30 06:52:04;;;;;;;7.53;4.50;;;;;;;26.84;56.27;100872.00;4906645;28;20866;-79
2023/07/30 06:54:30;;;;;;;8.85;4.45;;;;;;;26.81;55.99;100859.69;4927321;28;20047;-78
2023/07/30 06:56:58;;;;;;;5.90;3.88;;;;;;;26.78;55.63;100843.84;4943532;28;20063;-80
2023/07/30 06:59:24;;;;;;;7.03;4.53;;;;;;;27.16;55.34;100896.97;4889397;29;20110;-79
2023/07/30 07:01:59;;;;;;;6.68;4.20;;;;;;;27.17;55.42;100904.09;4929472;28;20231;-78
2023/07/30 07:04:25;;;;;;;6.03;4.72;;;;;;;26.93;55.45;100870.59;4929044;28;20138;-79
2023/07/30 07:06:52;;;;;;;9.57;4.80;;;;;;;26.61;56.19;100826.56;4939865;28;20141;-79
2023/07/30 07:09:19;;;;;;;7.75;4.70;;;;;;;27.02;56.19;100877.34;4943109;28;20051;-78
2023/07/30 07:11:46;;;;;;;9.43;5.00;;;;;;;27.14;55.88;100882.78;4941939;28;20051;-79
2023/07/30 07:14:13;;;;;;;7.50;5.13;;;;;;;27.03;55.52;100832.66;4934889;28;20051;-79
2023/07/30 07:16:40;;;;;;;9.23;4.75;;;;;;;27.36;55.56;100902.06;4930275;28;20046;-79
2023/07/30 07:19:06;;;;;;;9.27;5.45;;;;;;;27.44;54.79;100898.94;4946340;28;20050;-79
2023/07/30 07:21:36;;;;;;;10.77;4.88;;;;;;;27.16;54.91;100868.88;4940432;28;20050;-79
2023/07/30 07:24:04;;;;;;;6.50;4.72;;;;;;;26.74;55.79;100822.75;4936483;28;20069;-79
2023/07/30 07:26:31;;;;;;;9.50;4.72;;;;;;;27.01;56.09;100862.03;4941080;28;20047;-79
2023/07/30 07:28:58;;;;;;;6.68;4.28;;;;;;;27.24;56.29;100877.56;4938719;28;20542;-78
2023/07/30 07:31:24;;;;;;;10.27;5.03;;;;;;;27.28;55.49;100864.25;4931631;28;20546;-79
2023/07/30 07:33:51;;;;;;;8.13;5.28;;;;;;;27.35;56.27;100864.97;4937924;28;20042;-78
2023/07/30 07:36:18;;;;;;;8.27;4.65;;;;;;;27.25;54.58;100842.94;4955291;28;20063;-79
2023/07/30 07:38:48;;;;;;;5.70;4.90;;;;;;;27.46;55.10;100877.72;4933586;28;20058;-80
2023/07/30 07:41:23;;;;;;;7.68;5.03;;;;;;;27.64;54.68;100887.63;4935178;28;20058;-80
2023/07/30 07:43:52;;;;;;;9.23;5.30;;;;;;;27.63;54.53;100874.25;4931876;28;20518;-77
2023/07/30 07:46:22;;;;;;;7.40;5.03;;;;;;;27.72;54.08;100883.69;4933843;28;20043;-80
2023/07/30 07:48:49;;;;;;;11.43;5.95;;;;;;;27.71;54.44;100882.03;4954197;28;20046;-78
2023/07/30 07:51:15;;;;;;;6.95;5.40;;;;;;;27.75;54.48;100885.94;4960488;28;20054;-78
2023/07/30 07:53:42;;;;;;;6.43;4.65;;;;;;;27.81;54.20;100881.41;4930579;28;20054;-80
2023/07/30 07:56:09;;;;;;;10.40;5.28;;;;;;;27.89;53.36;100887.31;4923802;28;20101;-79
2023/07/30 07:58:36;;;;;;;10.85;5.03;;;;;;;27.89;53.57;100890.06;4906199;28;20089;-79
2023/07/30 08:01:06;;;;;;;13.25;5.30;;;;;;;27.90;53.45;100891.69;4931700;28;20061;-80
2023/07/30 08:03:33;;;;;;;10.07;5.27;;;;;;;28.20;52.91;100866.03;4936593;28;20356;-80
2023/07/30 08:06:01;;;;;;;10.90;4.97;;;;;;;27.85;52.18;100808.94;4922914;28;20137;-79
2023/07/30 08:08:31;;;;;;;5.70;4.82;;;;;;;28.25;52.19;100871.56;4934980;28;20486;-79
2023/07/30 08:10:58;;;;;;;6.25;4.45;;;;;;;28.22;52.67;100855.69;4945263;28;20121;-78
2023/07/30 08:13:24;;;;;;;8.60;4.70;;;;;;;28.29;52.13;100859.09;4929116;28;20241;-80
2023/07/30 08:15:51;;;;;;;11.38;4.40;;;;;;;28.45;50.38;100881.16;4938902;28;20354;-79
2023/07/30 08:18:18;;;;;;;9.68;4.35;;;;;;;28.66;50.85;100871.41;4943153;28;20469;-79
2023/07/30 08:20:44;;;;;;;7.05;3.95;;;;;;;28.50;50.55;100873.09;4947205;28;20079;-80
2023/07/30 08:23:16;;;;;;;7.03;4.47;;;;;;;28.53;49.65;100873.41;4951885;28;20403;-80
2023/07/30 08:25:45;;;;;;;4.60;3.92;;;;;;;28.59;49.91;100890.69;4934786;28;20046;-80
2023/07/30 08:28:12;;;;;;;8.93;4.30;;;;;;;28.62;49.54;100882.03;4933728;28;20892;-81
2023/07/30 08:30:42;;;;;;;4.90;3.85;;;;;;;28.62;50.79;100868.38;4950451;28;20331;-79
2023/07/30 08:33:09;;;;;;;9.25;4.93;;;;;;;28.98;50.30;100869.72;4918148;28;20057;-79
2023/07/30 08:35:36;;;;;;;5.47;3.92;;;;;;;28.63;50.26;100845.44;4956608;28;20097;-78
2023/07/30 08:38:03;;;;;;;6.60;3.58;;;;;;;28.80;47.65;100845.41;4919809;28;20046;-80
2023/07/30 08:40:31;;;;;;;7.70;4.15;;;;;;;28.73;49.12;100844.75;4921576;28;20058;-80
2023/07/30 08:42:58;;;;;;;8.55;4.68;;;;;;;28.58;48.61;100841.81;4944766;28;20070;-79
2023/07/30 08:45:27;;;;;;;4.68;4.28;;;;;;;28.70;49.11;100848.81;4940304;28;20143;-79
2023/07/30 08:47:54;;;;;;;7.10;4.03;;;;;;;28.77;49.25;100887.72;4934235;28;20047;-79
2023/07/30 08:50:23;;;;;;;6.88;4.20;;;;;;;28.17;49.86;100773.72;4919572;28;20133;-80
2023/07/30 08:52:50;;;;;;;8.30;4.80;;;;;;;28.72;49.77;100822.09;4925120;28;20522;-80
2023/07/30 08:55:20;;;;;;;8.68;4.18;;;;;;;29.12;48.10;100784.63;4926523;28;20046;-80
2023/07/30 08:57:51;;;;;;;9.75;4.80;;;;;;;29.24;49.34;100871.97;4889354;28;20638;-80
2023/07/30 09:00:25;;;;;;;4.43;3.95;;;;;;;29.22;49.16;100882.34;4924968;28;20057;-82
2023/07/30 09:02:54;;;;;;;10.25;4.63;;;;;;;29.26;48.84;100878.03;4920147;28;20503;-80
2023/07/30 09:05:24;;;;;;;8.20;4.75;;;;;;;29.33;48.45;100882.22;4900169;28;20051;-81
2023/07/30 09:07:55;;;;;;;6.47;4.15;;;;;;;29.29;48.43;100880.25;4933211;28;20051;-80
2023/07/30 09:10:26;;;;;;;4.47;4.05;;;;;;;29.25;48.38;100873.63;4926482;28;20586;-81
2023/07/30 09:12:59;;;;;;;5.43;4.40;;;;;;;29.33;48.94;100886.88;4931557;28;20066;-80
2023/07/30 09:15:37;;;;;;;4.75;3.95;;;;;;;29.19;49.38;100881.75;4940027;28;20425;-80
2023/07/30 09:18:06;;;;;;;4.95;4.40;;;;;;;29.32;49.85;100880.56;4934416;28;20054;-80
2023/07/30 09:20:41;;;;;;;7.05;4.10;;;;;;;29.36;49.19;100878.16;4940401;28;20059;-79
2023/07/30 09:23:09;;;;;;;5.93;4.20;;;;;;;29.44;49.08;100882.34;4946478;28;20109;-79
2023/07/30 09:25:40;;;;;;;4.30;3.90;;;;;;;29.34;49.17;100836.56;4918795;28;20070;-80
2023/07/30 09:28:08;;;;;;;6.18;4.10;;;;;;;29.69;48.87;100862.69;4916638;28;20051;-79
2023/07/30 09:30:35;;;;;;;10.52;4.53;;;;;;;29.61;47.99;100856.56;4901377;28;20070;-79
2023/07/30 09:33:04;;;;;;;7.22;5.20;;;;;;;29.75;47.55;100872.59;4925916;28;20522;-79
2023/07/30 09:35:33;;;;;;;6.70;4.55;;;;;;;29.36;47.25;100801.59;4935925;28;20476;-80
2023/07/30 09:38:04;;;;;;;6.05;4.20;;;;;;;29.65;48.06;100824.03;4905717;28;20054;-79
2023/07/30 09:40:38;;;;;;;5.32;3.90;;;;;;;29.72;48.06;100832.91;4919080;28;20043;-81
2023/07/30 09:43:06;;;;;;;9.98;4.78;;;;;;;28.70;47.92;100693.13;4934846;28;20055;-80
2023/07/30 09:45:38;;;;;;;6.35;4.07;;;;;;;29.84;47.52;100854.63;4957718;28;20265;-76
2023/07/30 09:48:08;;;;;;;8.88;4.32;;;;;;;29.82;46.93;100856.78;4915722;28;20397;-80
2023/07/30 09:50:37;;;;;;;6.05;4.45;;;;;;;30.33;47.07;100865.50;4917211;28;20043;-79
2023/07/30 09:53:04;;;;;;;5.68;3.72;;;;;;;29.99;47.15;100818.38;4918717;28;20373;-79
2023/07/30 09:55:34;;;;;;;5.78;4.20;;;;;;;30.46;47.03;100866.94;4918934;28;20517;-80
2023/07/30 09:58:05;;;;;;;5.55;3.88;;;;;;;30.34;46.96;100842.50;4923173;28;20106;-81
2023/07/30 10:00:32;;;;;;;11.70;4.60;;;;;;;30.28;47.29;100857.25;4936923;28;20106;-79
2023/07/30 10:03:01;;;;;;;6.18;4.82;;;;;;;30.03;47.31;100853.19;4938092;28;20055;-79
2023/07/30 10:05:34;;;;;;;6.90;4.85;;;;;;;29.83;47.14;100781.81;4955784;28;20050;-79
2023/07/30 10:08:10;;;;;;;7.03;5.45;;;;;;;30.39;47.00;100864.47;4918631;28;20487;-79
2023/07/30 10:10:45;;;;;;;9.35;4.82;;;;;;;30.48;46.70;100856.56;4876993;28;20310;-80
2023/07/30 10:13:13;;;;;;;7.82;4.93;;;;;;;30.48;46.69;100845.59;4915370;29;20062;-79
2023/07/30 10:15:40;;;;;;;6.30;4.50;;;;;;;30.70;46.14;100856.44;4899988;29;20280;-80
2023/07/30 10:18:10;;;;;;;10.70;4.85;;;;;;;30.18;46.21;100789.50;4916115;29;20058;-79
2023/07/30 10:20:41;;;;;;;5.55;4.47;;;;;;;30.73;46.05;100855.06;4911413;28;20562;-79
2023/07/30 10:23:13;;;;;;;6.22;4.68;;;;;;;31.01;45.32;100845.69;4897672;29;20134;-79
2023/07/30 10:25:44;;;;;;;5.83;4.43;;;;;;;30.94;46.00;100858.78;4920179;29;20051;-79
2023/07/30 10:28:33;;;;;;;8.38;4.60;;;;;;;30.60;46.47;100798.84;4925659;28;20061;-79
2023/07/30 10:31:08;;;;;;;;;;;;;;;30.77;46.45;100845.25;4925643;28;20061;-79
2023/07/30 10:33:44;;;;;;;6.05;4.40;;;;;;;30.67;46.31;100844.09;4916810;28;20131;-80
2023/07/30 10:36:11;;;;;;;6.95;4.95;;;;;;;30.49;46.31;100832.72;4934579;28;20485;-80
2023/07/30 10:38:41;;;;;;;5.65;4.68;;;;;;;30.66;46.68;100838.91;4948234;28;20093;-80
2023/07/30 10:41:17;;;;;;;11.10;4.97;;;;;;;30.11;47.11;100788.09;4959816;28;20077;-79
2023/07/30 10:43:47;;;;;;;6.20;4.78;;;;;;;30.34;46.98;100837.03;4914877;29;20055;-78
2023/07/30 10:46:15;;;;;;;7.50;5.57;;;;;;;30.33;46.28;100829.06;4946910;28;20051;-78
2023/07/30 10:48:45;;;;;;;7.88;5.47;;;;;;;30.53;46.46;100850.28;4944995;28;20302;-77
2023/07/30 10:51:16;;;;;;;6.55;5.38;;;;;;;30.60;45.62;100809.81;4896966;29;20341;-78
2023/07/30 10:53:55;;;;;;;6.45;4.55;;;;;;;30.99;44.94;100826.75;4921185;29;20142;-78
2023/07/30 10:56:31;;;;;;;6.35;5.15;;;;;;;31.26;45.25;100826.56;4898117;28;20055;-79
2023/07/30 10:59:01;;;;;;;8.38;5.32;;;;;;;31.26;44.82;100810.13;4947016;28;20708;-78
2023/07/30 11:01:41;;;;;;;7.53;4.93;;;;;;;31.51;44.22;100808.59;4902474;28;20062;-80
2023/07/30 11:04:15;;;;;;;8.23;5.15;;;;;;;31.68;44.64;100806.41;4901530;28;20047;-80
2023/07/30 11:06:49;;;;;;;7.85;5.78;;;;;;;31.58;43.75;100768.00;4907961;28;20055;-79
2023/07/30 11:09:20;;;;;;;9.25;5.18;;;;;;;31.02;43.39;100647.19;4910850;28;20097;-76
2023/07/30 11:11:48;;;;;;;11.32;5.35;;;;;;;32.21;43.53;100813.59;4921608;28;20077;-77
2023/07/30 11:14:22;;;;;;;8.23;5.30;;;;;;;32.16;43.21;100795.19;4913272;28;20477;-79
2023/07/30 11:16:59;;;;;;;7.40;4.95;;;;;;;32.00;42.85;100780.66;4919687;28;20051;-77
2023/07/30 11:19:33;;;;;;;6.60;4.68;;;;;;;31.52;44.22;100774.56;4930222;28;20078;-79
2023/07/30 11:22:09;;;;;;;7.85;4.88;;;;;;;31.59;44.18;100808.03;4907401;28;20047;-79
2023/07/30 11:24:37;;;;;;;7.75;4.40;;;;;;;31.43;44.47;100766.03;4951248;28;20054;-78
2023/07/30 11:27:04;;;;;;;7.60;5.18;;;;;;;31.35;44.74;100809.63;4923210;28;20062;-78
2023/07/30 11:29:34;;;;;;;10.00;4.80;;;;;;;31.48;44.68;100800.88;4928236;28;20047;-79